Miscou Island, Canada
Current Conditions -  °F | °C
As of 2:22 PM on Thursday 18 Dec 2014 (Local Time) from CZBF Reporting Station
Hail Hail  
Wind Chill: 21°   Ceiling: 300
Heat Index: 30°   Visibility: 0.5mi
Dew Point: 30°   Wind: 10mph
Humidity: 100%   Direction: 350°N
Pressure: 29.44"   Gusts: 17mph
Location:  47.87°N, 64.59°W
Report Text: CZBF 181822Z 35009G15KT 320V030 1/2SM SHSNGS VV003 M01/M01 A2944 RMK SN8 VERT CLD EMBD SLP972
Loading
Personal Weather Stations






























Interactive Weather Map New forecast layout! Learn more

10-Day Weather Forecast

Advertisements
Track Severe Weather on mobile